Time;durP1;ratioP1;P1;durP2;ratioP2;P2;SDS_P1;SDS_P2;PMS_P1;PMS_P2;Temp;Humidity;BMP_temperature;BMP_pressure;BME280_temperature;BME280_humidity;BME280_pressure;Samples;Min_cycle;Max_cycle;Signal;HPM_P1;HPM_P2
2021/05/25 00:00:57;;;;;;;5.82;2.75;;;;;;;;;;5072067;28;20029;-77
2021/05/25 00:03:24;;;;;;;6.05;2.35;;;;;;;;;;5074910;28;20034;-77
2021/05/25 00:05:50;;;;;;;4.60;2.85;;;;;;;;;;5060000;28;20040;-77
2021/05/25 00:08:17;;;;;;;6.70;2.90;;;;;;;;;;5086877;28;20074;-78
2021/05/25 00:10:43;;;;;;;7.43;3.40;;;;;;;;;;5057882;28;20448;-78
2021/05/25 00:13:10;;;;;;;4.90;2.70;;;;;;;;;;5076894;28;20036;-78
2021/05/25 00:15:36;;;;;;;7.68;3.30;;;;;;;;;;5058783;28;20035;-77
2021/05/25 00:18:03;;;;;;;6.55;2.33;;;;;;;;;;5076689;28;20082;-78
2021/05/25 00:20:30;;;;;;;7.75;2.58;;;;;;;;;;5074157;28;20031;-77
2021/05/25 00:22:56;;;;;;;4.45;2.30;;;;;;;;;;5064219;28;20426;-78
2021/05/25 00:25:23;;;;;;;5.88;2.33;;;;;;;;;;5075543;28;20027;-77
2021/05/25 00:27:50;;;;;;;4.65;2.03;;;;;;;;;;5075636;28;20524;-78
2021/05/25 00:30:18;;;;;;;5.80;2.10;;;;;;;;;;5095739;28;20492;-77
2021/05/25 00:32:45;;;;;;;2.85;1.92;;;;;;;;;;5069231;28;20028;-78
2021/05/25 00:35:12;;;;;;;3.92;2.05;;;;;;;;;;5075414;28;20024;-78
2021/05/25 00:37:38;;;;;;;5.43;1.95;;;;;;;;;;5064423;28;20044;-78
2021/05/25 00:40:06;;;;;;;4.80;2.30;;;;;;;;;;5077513;28;20024;-78
2021/05/25 00:42:32;;;;;;;8.48;2.28;;;;;;;;;;5067010;28;20020;-78
2021/05/25 00:44:59;;;;;;;6.20;2.22;;;;;;;;;;5076254;28;20146;-78
2021/05/25 00:47:32;;;;;;;4.03;2.15;;;;;;;;;;5073131;28;20036;-78
2021/05/25 00:50:10;;;;;;;4.63;2.42;;;;;;;;;;5069636;28;20024;-78
2021/05/25 00:52:40;;;;;;;5.97;2.30;;;;;;;;;;5088465;28;20136;-78
2021/05/25 00:55:07;;;;;;;7.95;2.55;;;;;;;;;;5095262;28;20024;-78
2021/05/25 00:57:33;;;;;;;5.80;2.40;;;;;;;;;;5073852;28;20524;-78
2021/05/25 01:00:00;;;;;;;8.05;2.28;;;;;;;;;;5075042;28;20046;-78
2021/05/25 01:02:26;;;;;;;7.15;2.50;;;;;;;;;;5066670;28;20025;-78
2021/05/25 01:04:54;;;;;;;8.40;3.15;;;;;;;;;;5058001;28;20113;-78
2021/05/25 01:07:20;;;;;;;5.82;2.38;;;;;;;;;;5063592;28;20042;-78
2021/05/25 01:09:47;;;;;;;4.45;2.33;;;;;;;;;;5079615;28;20024;-78
2021/05/25 01:12:13;;;;;;;5.25;3.42;;;;;;;;;;5062547;28;20101;-78
2021/05/25 01:14:46;;;;;;;5.68;2.08;;;;;;;;;;5076808;28;20481;-78
2021/05/25 01:17:13;;;;;;;3.60;1.80;;;;;;;;;;5092733;28;20115;-78
2021/05/25 01:19:39;;;;;;;6.30;1.90;;;;;;;;;;5084425;28;20031;-78
2021/05/25 01:22:05;;;;;;;4.28;2.08;;;;;;;;;;5057584;28;20041;-78
2021/05/25 01:24:32;;;;;;;7.20;1.92;;;;;;;;;;5074609;28;20032;-78
2021/05/25 01:27:03;;;;;;;4.30;2.08;;;;;;;;;;5072827;28;20417;-78
2021/05/25 01:29:29;;;;;;;3.72;1.65;;;;;;;;;;5071322;28;20041;-78
2021/05/25 01:31:56;;;;;;;3.78;1.35;;;;;;;;;;5062873;28;20029;-78
2021/05/25 01:34:22;;;;;;;4.45;2.60;;;;;;;;;;5060982;28;20415;-78
2021/05/25 01:36:49;;;;;;;3.80;1.63;;;;;;;;;;5070222;28;20035;-78
2021/05/25 01:39:15;;;;;;;3.20;1.83;;;;;;;;;;5064862;28;20082;-78
2021/05/25 01:41:42;;;;;;;4.25;1.67;;;;;;;;;;5074119;28;20050;-78
2021/05/25 01:44:08;;;;;;;3.33;1.63;;;;;;;;;;5055944;28;20494;-78
2021/05/25 01:46:35;;;;;;;3.10;1.80;;;;;;;;;;5061535;28;20028;-78
2021/05/25 01:49:01;;;;;;;5.28;2.28;;;;;;;;;;5068837;28;20096;-77
2021/05/25 01:51:28;;;;;;;5.28;1.98;;;;;;;;;;5061016;28;20054;-77
2021/05/25 01:53:54;;;;;;;5.00;1.65;;;;;;;;;;5072178;28;20433;-77
2021/05/25 01:56:21;;;;;;;4.13;1.80;;;;;;;;;;5059001;28;20029;-77
2021/05/25 01:58:48;;;;;;;2.88;1.65;;;;;;;;;;5053900;28;20048;-77
2021/05/25 02:01:14;;;;;;;2.90;1.83;;;;;;;;;;5067404;28;20017;-78
2021/05/25 02:03:41;;;;;;;3.10;1.63;;;;;;;;;;5079030;28;20381;-78
2021/05/25 02:06:08;;;;;;;4.22;1.73;;;;;;;;;;5064942;28;20556;-77
2021/05/25 02:08:34;;;;;;;4.32;2.13;;;;;;;;;;5064592;28;20033;-78
2021/05/25 02:11:02;;;;;;;4.03;1.80;;;;;;;;;;5052420;28;20025;-78
2021/05/25 02:13:33;;;;;;;2.75;1.88;;;;;;;;;;5052372;28;20059;-77
2021/05/25 02:16:01;;;;;;;3.20;1.77;;;;;;;;;;5054229;28;20032;-78
2021/05/25 02:18:29;;;;;;;3.13;1.52;;;;;;;;;;5067356;28;20489;-78
2021/05/25 02:20:56;;;;;;;3.22;1.77;;;;;;;;;;5071011;28;20021;-78
2021/05/25 02:23:22;;;;;;;4.38;2.03;;;;;;;;;;5107339;28;20040;-79
2021/05/25 02:25:49;;;;;;;5.18;2.10;;;;;;;;;;5105330;28;20027;-77
2021/05/25 02:28:15;;;;;;;5.65;1.95;;;;;;;;;;5109121;28;20020;-79
2021/05/25 02:30:42;;;;;;;3.33;1.67;;;;;;;;;;5092834;28;20015;-78
2021/05/25 02:33:09;;;;;;;4.15;2.38;;;;;;;;;;5087744;28;20322;-78
2021/05/25 02:35:36;;;;;;;3.15;1.85;;;;;;;;;;5065810;28;20393;-79
2021/05/25 02:38:03;;;;;;;4.65;1.90;;;;;;;;;;5067208;28;20063;-78
2021/05/25 02:40:31;;;;;;;5.63;1.70;;;;;;;;;;5055113;28;20040;-79
2021/05/25 02:42:57;;;;;;;4.25;2.97;;;;;;;;;;5055169;28;20021;-77
2021/05/25 02:45:24;;;;;;;3.90;1.80;;;;;;;;;;5079842;28;20052;-79
2021/05/25 02:47:50;;;;;;;5.45;1.42;;;;;;;;;;5091493;28;20042;-78
2021/05/25 02:50:17;;;;;;;2.80;1.95;;;;;;;;;;5059693;28;20036;-79
2021/05/25 02:52:44;;;;;;;5.57;1.58;;;;;;;;;;5071738;28;20031;-78
2021/05/25 02:55:12;;;;;;;4.63;1.52;;;;;;;;;;5087503;28;20059;-78
2021/05/25 02:57:38;;;;;;;4.07;1.55;;;;;;;;;;5102906;28;20474;-77
2021/05/25 03:00:06;;;;;;;2.58;1.30;;;;;;;;;;5090349;28;20024;-78
2021/05/25 03:02:32;;;;;;;3.97;1.67;;;;;;;;;;5089165;28;20023;-77
2021/05/25 03:04:58;;;;;;;5.20;1.85;;;;;;;;;;5088048;28;20020;-78
2021/05/25 03:07:25;;;;;;;2.42;1.50;;;;;;;;;;5101703;28;20028;-79
2021/05/25 03:09:51;;;;;;;2.50;1.45;;;;;;;;;;5093786;28;20486;-80
2021/05/25 03:12:17;;;;;;;3.20;1.60;;;;;;;;;;5094891;28;20023;-78
2021/05/25 03:14:44;;;;;;;5.95;1.40;;;;;;;;;;5087937;28;20023;-78
2021/05/25 03:17:10;;;;;;;2.72;1.67;;;;;;;;;;5094551;28;20506;-79
2021/05/25 03:19:37;;;;;;;3.20;1.80;;;;;;;;;;5112843;28;20047;-80
2021/05/25 03:22:03;;;;;;;4.57;1.73;;;;;;;;;;5089614;28;20040;-79
2021/05/25 03:24:29;;;;;;;2.25;1.50;;;;;;;;;;5090881;28;20023;-80
2021/05/25 03:26:56;;;;;;;4.70;1.70;;;;;;;;;;5091983;28;20027;-78
2021/05/25 03:29:23;;;;;;;7.68;1.85;;;;;;;;;;5095985;28;20373;-79
2021/05/25 03:31:49;;;;;;;5.63;1.55;;;;;;;;;;5112464;28;20532;-79
2021/05/25 03:34:15;;;;;;;4.80;1.90;;;;;;;;;;5114800;28;20024;-79
2021/05/25 03:36:42;;;;;;;2.90;1.85;;;;;;;;;;5088813;28;20107;-79
2021/05/25 03:39:08;;;;;;;2.80;1.77;;;;;;;;;;5094035;28;20074;-78
2021/05/25 03:41:35;;;;;;;3.78;2.05;;;;;;;;;;5115994;28;20026;-79
2021/05/25 03:44:01;;;;;;;5.90;2.10;;;;;;;;;;5097888;28;20452;-78
2021/05/25 03:46:28;;;;;;;5.78;1.80;;;;;;;;;;5081438;28;20024;-79
2021/05/25 03:48:54;;;;;;;6.10;1.95;;;;;;;;;;5079827;28;20028;-80
2021/05/25 03:51:20;;;;;;;2.60;2.00;;;;;;;;;;5075681;28;20031;-80
2021/05/25 03:53:49;;;;;;;3.17;1.60;;;;;;;;;;5078012;28;20021;-79
2021/05/25 03:56:18;;;;;;;2.95;1.80;;;;;;;;;;5076387;28;20538;-77
2021/05/25 03:58:51;;;;;;;5.85;2.08;;;;;;;;;;5076100;28;20119;-78
2021/05/25 04:01:21;;;;;;;4.05;2.20;;;;;;;;;;5077794;28;20029;-78
2021/05/25 04:03:49;;;;;;;2.85;1.83;;;;;;;;;;5067505;28;20550;-78
2021/05/25 04:06:16;;;;;;;3.47;2.28;;;;;;;;;;5077121;28;20028;-79
2021/05/25 04:08:42;;;;;;;2.67;1.90;;;;;;;;;;5067003;28;20036;-78
2021/05/25 04:11:09;;;;;;;4.32;2.13;;;;;;;;;;5084574;28;20063;-78
2021/05/25 04:13:35;;;;;;;4.30;1.90;;;;;;;;;;5077985;28;20052;-78
2021/05/25 04:16:02;;;;;;;3.17;2.17;;;;;;;;;;5095160;28;20547;-78
2021/05/25 04:18:28;;;;;;;6.07;1.92;;;;;;;;;;5077807;28;20473;-79
2021/05/25 04:20:55;;;;;;;2.88;2.33;;;;;;;;;;5080449;28;20173;-78
2021/05/25 04:23:21;;;;;;;3.63;2.33;;;;;;;;;;5079889;28;20113;-78
2021/05/25 04:25:47;;;;;;;5.93;2.60;;;;;;;;;;5089602;28;20074;-78
2021/05/25 04:28:15;;;;;;;3.72;2.75;;;;;;;;;;5095805;28;20024;-78
2021/05/25 04:30:42;;;;;;;4.18;2.80;;;;;;;;;;5077361;28;20033;-78
2021/05/25 04:33:08;;;;;;;5.70;2.70;;;;;;;;;;5069450;28;20032;-78
2021/05/25 04:35:35;;;;;;;5.70;3.25;;;;;;;;;;5059549;28;20051;-78
2021/05/25 04:38:01;;;;;;;4.47;3.13;;;;;;;;;;5054036;28;20155;-78
2021/05/25 04:40:28;;;;;;;4.43;3.20;;;;;;;;;;5058788;28;20034;-78
2021/05/25 04:42:54;;;;;;;4.53;3.35;;;;;;;;;;5095459;28;20027;-78
2021/05/25 04:45:21;;;;;;;3.90;2.70;;;;;;;;;;5091826;28;20055;-78
2021/05/25 04:47:47;;;;;;;4.25;2.72;;;;;;;;;;5060502;28;20028;-78
2021/05/25 04:50:14;;;;;;;3.80;2.35;;;;;;;;;;5072330;28;20024;-78
2021/05/25 04:52:41;;;;;;;4.28;2.63;;;;;;;;;;5065937;28;20028;-78
2021/05/25 04:55:12;;;;;;;4.18;2.40;;;;;;;;;;5057079;28;20036;-78
2021/05/25 04:57:38;;;;;;;3.88;2.45;;;;;;;;;;5062611;28;20052;-79
2021/05/25 05:00:06;;;;;;;3.47;2.35;;;;;;;;;;5090093;28;20046;-78
2021/05/25 05:02:34;;;;;;;3.28;2.00;;;;;;;;;;5088903;28;20059;-80
2021/05/25 05:05:00;;;;;;;3.53;1.95;;;;;;;;;;5070174;28;20024;-80
2021/05/25 05:07:26;;;;;;;3.40;2.17;;;;;;;;;;5068796;28;20016;-80
2021/05/25 05:09:53;;;;;;;2.55;1.77;;;;;;;;;;5072688;28;20032;-81
2021/05/25 05:12:19;;;;;;;4.25;1.90;;;;;;;;;;5074312;28;20025;-80
2021/05/25 05:14:46;;;;;;;3.72;2.17;;;;;;;;;;5088828;28;20024;-80
2021/05/25 05:17:12;;;;;;;2.47;1.83;;;;;;;;;;5090984;28;20177;-79
2021/05/25 05:19:39;;;;;;;4.10;2.20;;;;;;;;;;5094166;28;20016;-80
2021/05/25 05:22:05;;;;;;;3.08;2.03;;;;;;;;;;5082689;28;20101;-80
2021/05/25 05:24:31;;;;;;;3.97;2.22;;;;;;;;;;5090437;28;20142;-79
2021/05/25 05:26:57;;;;;;;5.45;2.22;;;;;;;;;;5089960;28;20081;-80
2021/05/25 05:29:24;;;;;;;2.78;2.10;;;;;;;;;;5093147;28;20488;-79
2021/05/25 05:31:50;;;;;;;2.67;1.77;;;;;;;;;;5071437;28;20056;-78
2021/05/25 05:34:17;;;;;;;3.45;2.33;;;;;;;;;;5064441;28;20040;-78
2021/05/25 05:36:43;;;;;;;3.50;2.38;;;;;;;;;;5064092;28;20035;-79
2021/05/25 05:39:10;;;;;;;2.95;1.90;;;;;;;;;;5070784;28;20028;-79
2021/05/25 05:41:36;;;;;;;3.72;1.80;;;;;;;;;;5093374;28;20058;-78
2021/05/25 05:44:03;;;;;;;2.40;1.65;;;;;;;;;;5092220;28;20024;-77
2021/05/25 05:46:29;;;;;;;4.68;1.98;;;;;;;;;;5093378;28;20024;-77
2021/05/25 05:48:56;;;;;;;2.90;1.80;;;;;;;;;;5088394;28;20052;-76
2021/05/25 05:51:23;;;;;;;2.63;1.55;;;;;;;;;;5091951;28;20400;-80
2021/05/25 05:53:49;;;;;;;3.72;1.50;;;;;;;;;;5088862;28;20465;-78
2021/05/25 05:56:19;;;;;;;3.00;1.65;;;;;;;;;;5087880;28;20036;-78
2021/05/25 05:58:46;;;;;;;5.13;1.60;;;;;;;;;;5091936;28;20023;-78
2021/05/25 06:01:21;;;;;;;4.80;1.58;;;;;;;;;;5088886;28;20043;-82
2021/05/25 06:03:47;;;;;;;3.33;1.40;;;;;;;;;;5075976;28;20043;-77
2021/05/25 06:06:14;;;;;;;2.30;1.58;;;;;;;;;;5090613;28;20405;-82
2021/05/25 06:08:41;;;;;;;3.65;1.63;;;;;;;;;;5092092;28;20354;-86
2021/05/25 06:11:08;;;;;;;2.35;1.10;;;;;;;;;;5093559;28;20020;-87
2021/05/25 06:13:36;;;;;;;1.83;1.05;;;;;;;;;;5094534;28;20023;-85
2021/05/25 06:16:02;;;;;;;2.38;1.75;;;;;;;;;;5094099;28;20030;-84
2021/05/25 06:18:33;;;;;;;2.78;2.28;;;;;;;;;;5092516;28;20059;-84
2021/05/25 06:21:01;;;;;;;2.65;1.38;;;;;;;;;;5093437;28;20016;-86
2021/05/25 06:23:28;;;;;;;6.50;3.13;;;;;;;;;;5106342;28;20036;-92
2021/05/25 06:25:54;;;;;;;2.70;1.60;;;;;;;;;;5096427;28;20020;-78
2021/05/25 06:28:23;;;;;;;5.05;2.28;;;;;;;;;;5113172;28;20377;-79
2021/05/25 06:30:49;;;;;;;7.10;3.40;;;;;;;;;;5113551;28;20454;-79
2021/05/25 06:33:17;;;;;;;3.60;3.25;;;;;;;;;;5092058;28;20035;-83
2021/05/25 06:35:43;;;;;;;3.10;2.55;;;;;;;;;;5107806;28;20018;-85
2021/05/25 06:38:11;;;;;;;3.13;2.08;;;;;;;;;;5113028;28;20024;-85
2021/05/25 06:40:39;;;;;;;3.42;2.13;;;;;;;;;;5112594;28;20374;-83
2021/05/25 06:43:05;;;;;;;4.80;2.13;;;;;;;;;;5092278;28;20392;-78
2021/05/25 06:45:31;;;;;;;2.78;1.80;;;;;;;;;;5112162;28;20016;-78
2021/05/25 06:47:58;;;;;;;3.45;2.00;;;;;;;;;;5112542;28;20023;-78
2021/05/25 06:50:29;;;;;;;3.85;1.95;;;;;;;;;;5113307;28;20028;-86
2021/05/25 06:53:00;;;;;;;4.95;2.70;;;;;;;;;;5110000;28;20027;-87
2021/05/25 06:55:26;;;;;;;4.22;2.22;;;;;;;;;;5108815;28;20024;-91
2021/05/25 06:57:53;;;;;;;7.00;2.55;;;;;;;;;;5115101;28;20081;-83
2021/05/25 07:00:22;;;;;;;4.60;2.63;;;;;;;;;;5113385;28;20016;-85
2021/05/25 07:02:49;;;;;;;6.55;2.50;;;;;;;;;;5108582;28;20023;-79
2021/05/25 07:05:15;;;;;;;4.10;2.50;;;;;;;;;;5094279;28;20427;-77
2021/05/25 07:07:44;;;;;;;4.95;2.95;;;;;;;;;;5095070;28;20110;-87
2021/05/25 07:10:10;;;;;;;5.88;3.10;;;;;;;;;;5112643;28;20050;-77
2021/05/25 07:12:36;;;;;;;4.53;3.05;;;;;;;;;;5109114;28;20051;-81
2021/05/25 07:15:05;;;;;;;6.63;3.22;;;;;;;;;;5102552;28;20054;-77
2021/05/25 07:17:31;;;;;;;3.97;3.20;;;;;;;;;;5113241;28;20019;-84
2021/05/25 07:19:57;;;;;;;3.97;3.08;;;;;;;;;;5094416;28;20027;-77
2021/05/25 07:22:23;;;;;;;6.18;3.53;;;;;;;;;;5090399;28;20452;-77
2021/05/25 07:24:51;;;;;;;5.85;3.78;;;;;;;;;;5112852;28;20557;-93
2021/05/25 07:27:18;;;;;;;5.78;4.30;;;;;;;;;;5094426;28;20118;-79
2021/05/25 07:29:45;;;;;;;4.82;4.07;;;;;;;;;;5112645;28;20023;-85
2021/05/25 07:32:12;;;;;;;5.05;4.10;;;;;;;;;;5109250;28;20031;-83
2021/05/25 07:34:38;;;;;;;6.45;4.50;;;;;;;;;;5078879;28;20485;-79
2021/05/25 07:37:04;;;;;;;6.47;3.30;;;;;;;;;;5087674;28;20053;-80
2021/05/25 07:39:31;;;;;;;3.88;3.22;;;;;;;;;;5111779;28;20020;-84
2021/05/25 07:41:57;;;;;;;5.38;3.08;;;;;;;;;;5108488;28;20043;-76
2021/05/25 07:44:24;;;;;;;4.57;3.20;;;;;;;;;;5108334;28;20016;-76
2021/05/25 07:46:52;;;;;;;4.07;3.08;;;;;;;;;;5111409;28;20445;-77
2021/05/25 07:49:19;;;;;;;5.47;3.33;;;;;;;;;;5110522;28;20016;-85
2021/05/25 07:51:45;;;;;;;8.02;2.88;;;;;;;;;;5111904;28;20023;-84
2021/05/25 07:54:12;;;;;;;6.55;2.30;;;;;;;;;;5113123;28;20039;-82
2021/05/25 07:56:38;;;;;;;3.63;2.60;;;;;;;;;;5094125;28;20118;-80
2021/05/25 07:59:04;;;;;;;3.83;1.88;;;;;;;;;;5093695;28;20396;-77
2021/05/25 08:01:31;;;;;;;3.10;1.83;;;;;;;;;;5111748;28;20030;-76
2021/05/25 08:03:57;;;;;;;2.65;1.80;;;;;;;;;;5110763;28;20103;-76
2021/05/25 08:06:24;;;;;;;4.88;1.92;;;;;;;;;;5089262;28;20028;-75
2021/05/25 08:08:50;;;;;;;2.42;1.52;;;;;;;;;;5111728;28;20032;-76
2021/05/25 08:11:16;;;;;;;4.55;2.05;;;;;;;;;;5111217;28;20015;-81
2021/05/25 08:13:45;;;;;;;2.53;1.75;;;;;;;;;;5113008;28;20023;-87
2021/05/25 08:16:15;;;;;;;2.55;1.70;;;;;;;;;;5096505;28;20016;-87
2021/05/25 08:19:09;;;;;;;4.03;1.90;;;;;;;;;;5117001;28;20016;-84
2021/05/25 08:21:35;;;;;;;2.13;1.75;;;;;;;;;;5113471;28;20025;-85
2021/05/25 08:24:07;;;;;;;3.72;2.40;;;;;;;;;;5116001;28;20062;-85
2021/05/25 08:26:34;;;;;;;4.15;2.25;;;;;;;;;;5116527;28;20020;-81
2021/05/25 08:29:00;;;;;;;5.40;2.30;;;;;;;;;;5115993;28;20027;-87
2021/05/25 08:31:27;;;;;;;3.15;2.20;;;;;;;;;;5116224;28;20083;-86
2021/05/25 08:33:53;;;;;;;3.88;2.00;;;;;;;;;;5116821;28;20472;-83
2021/05/25 08:36:20;;;;;;;2.50;1.60;;;;;;;;;;5115965;28;20027;-85
2021/05/25 08:38:47;;;;;;;3.33;1.70;;;;;;;;;;5098353;28;20405;-86
2021/05/25 08:41:13;;;;;;;4.05;1.70;;;;;;;;;;5115219;28;20023;-82
2021/05/25 08:43:41;;;;;;;4.15;2.13;;;;;;;;;;5116034;28;20020;-80
2021/05/25 08:46:08;;;;;;;3.00;1.40;;;;;;;;;;5092613;28;20481;-84
2021/05/25 08:48:40;;;;;;;2.58;1.60;;;;;;;;;;5115959;28;20030;-87
2021/05/25 08:51:07;;;;;;;3.90;1.30;;;;;;;;;;5094578;28;20012;-87
2021/05/25 08:53:33;;;;;;;2.17;1.20;;;;;;;;;;5080095;28;20114;-79
2021/05/25 08:56:02;;;;;;;2.70;1.52;;;;;;;;;;5113795;28;20095;-84
2021/05/25 08:58:28;;;;;;;1.80;0.98;;;;;;;;;;5096366;28;20023;-82
2021/05/25 09:01:00;;;;;;;5.85;1.35;;;;;;;;;;5114587;28;20023;-83
2021/05/25 09:03:29;;;;;;;2.88;1.05;;;;;;;;;;5110514;28;20465;-80
2021/05/25 09:06:06;;;;;;;1.07;0.90;;;;;;;;;;5110049;28;20071;-85
2021/05/25 09:08:37;;;;;;;1.58;0.90;;;;;;;;;;5113425;28;20341;-77
2021/05/25 09:11:09;;;;;;;2.20;1.15;;;;;;;;;;5094978;28;20020;-78
2021/05/25 09:13:35;;;;;;;2.97;1.50;;;;;;;;;;5113936;28;20464;-87
2021/05/25 09:16:03;;;;;;;2.15;0.98;;;;;;;;;;5113895;28;20026;-83
2021/05/25 09:18:30;;;;;;;3.50;1.23;;;;;;;;;;5114296;28;20019;-77
2021/05/25 09:21:03;;;;;;;1.60;0.90;;;;;;;;;;5113566;28;20384;-86
2021/05/25 09:23:32;;;;;;;1.88;1.02;;;;;;;;;;5110113;28;20431;-77
2021/05/25 09:26:04;;;;;;;2.85;1.02;;;;;;;;;;5112098;28;20051;-79
2021/05/25 09:28:57;;;;;;;3.70;1.20;;;;;;;;;;5110455;28;20024;-81
2021/05/25 09:31:47;;;;;;;2.58;1.17;;;;;;;;;;5090055;28;20024;-76
2021/05/25 09:34:13;;;;;;;;;;;;;;;;;;5098840;28;20028;-79
2021/05/25 09:36:59;;;;;;;1.98;1.25;;;;;;;;;;5110306;28;20114;-77
2021/05/25 09:39:28;;;;;;;2.17;1.20;;;;;;;;;;5107695;28;20102;-85
2021/05/25 09:41:59;;;;;;;1.85;1.23;;;;;;;;;;5092692;28;20019;-83
2021/05/25 09:44:25;;;;;;;3.72;1.45;;;;;;;;;;5113533;28;20453;-79
2021/05/25 09:46:53;;;;;;;3.78;0.90;;;;;;;;;;5109652;28;20077;-83
2021/05/25 09:49:20;;;;;;;2.03;1.13;;;;;;;;;;5093218;28;20027;-82
2021/05/25 09:51:47;;;;;;;2.63;1.23;;;;;;;;;;5083390;28;20727;-82
2021/05/25 09:54:23;;;;;;;2.03;1.30;;;;;;;;;;5095895;28;20059;-83
2021/05/25 09:56:59;;;;;;;3.92;1.70;;;;;;;;;;5108734;28;20030;-76
2021/05/25 09:59:34;;;;;;;4.03;1.80;;;;;;;;;;5106410;28;20016;-80
2021/05/25 10:02:15;;;;;;;4.40;1.67;;;;;;;;;;5093378;28;20434;-78
2021/05/25 10:04:59;;;;;;;2.55;1.73;;;;;;;;;;5112039;28;20136;-75
2021/05/25 10:07:27;;;;;;;2.70;1.85;;;;;;;;;;5089226;28;20028;-75
2021/05/25 10:09:55;;;;;;;3.85;1.77;;;;;;;;;;5085932;28;20028;-74
2021/05/25 10:12:22;;;;;;;6.00;2.10;;;;;;;;;;5111850;28;20381;-73
2021/05/25 10:14:49;;;;;;;3.65;1.98;;;;;;;;;;5112286;28;20035;-74
2021/05/25 10:17:30;;;;;;;4.38;2.10;;;;;;;;;;5093852;28;21375;-77
2021/05/25 10:19:57;;;;;;;4.45;2.00;;;;;;;;;;5109561;28;20011;-75
2021/05/25 10:22:24;;;;;;;5.05;2.30;;;;;;;;;;5103350;28;20135;-76
2021/05/25 10:24:51;;;;;;;4.68;2.10;;;;;;;;;;5104119;28;20127;-76
2021/05/25 10:27:18;;;;;;;4.85;1.80;;;;;;;;;;5089098;28;20042;-79
2021/05/25 10:29:44;;;;;;;5.32;2.38;;;;;;;;;;5110167;28;20192;-74
2021/05/25 10:32:20;;;;;;;8.00;2.10;;;;;;;;;;5111391;28;20080;-77
2021/05/25 10:34:48;;;;;;;4.88;2.17;;;;;;;;;;5104127;28;20030;-74
2021/05/25 10:37:15;;;;;;;5.15;1.98;;;;;;;;;;5087609;28;20354;-71
2021/05/25 10:39:43;;;;;;;6.53;2.95;;;;;;;;;;5107667;28;20020;-71
2021/05/25 10:42:19;;;;;;;10.50;2.00;;;;;;;;;;5110412;28;20089;-72
2021/05/25 10:44:45;;;;;;;3.75;1.80;;;;;;;;;;5107461;28;20257;-74
2021/05/25 10:47:19;;;;;;;5.38;1.98;;;;;;;;;;5111058;28;20032;-73
2021/05/25 10:50:12;;;;;;;3.95;2.00;;;;;;;;;;5110542;28;20015;-72
2021/05/25 10:52:39;;;;;;;7.18;2.55;;;;;;;;;;5107175;28;20031;-74
2021/05/25 10:55:06;;;;;;;8.23;2.55;;;;;;;;;;5110361;28;20026;-72
2021/05/25 10:57:48;;;;;;;3.38;2.08;;;;;;;;;;5109926;28;20019;-74
2021/05/25 11:00:18;;;;;;;6.10;2.20;;;;;;;;;;5104394;28;20022;-72
2021/05/25 11:02:50;;;;;;;6.03;2.35;;;;;;;;;;5107024;28;20031;-72
2021/05/25 11:05:29;;;;;;;4.55;2.15;;;;;;;;;;5101078;28;20085;-72
2021/05/25 11:07:56;;;;;;;4.20;2.95;;;;;;;;;;5088941;28;20053;-75
2021/05/25 11:10:28;;;;;;;7.18;3.92;;;;;;;;;;5108143;28;20315;-74
2021/05/25 11:13:13;;;;;;;8.68;4.28;;;;;;;;;;5108485;28;20077;-71
2021/05/25 11:15:58;;;;;;;7.18;4.65;;;;;;;;;;5104549;28;20042;-72
2021/05/25 11:18:40;;;;;;;6.75;3.28;;;;;;;;;;5106916;28;20041;-72
2021/05/25 11:23:46;;;;;;;6.18;2.88;;;;;;;;;;5101500;28;20062;-71
2021/05/25 11:26:42;;;;;;;6.85;2.50;;;;;;;;;;5110289;28;20379;-74
2021/05/25 11:29:15;;;;;;;7.55;3.00;;;;;;;;;;5087789;28;20153;-73
2021/05/25 11:31:41;;;;;;;4.10;2.75;;;;;;;;;;5087159;28;20033;-73
2021/05/25 11:34:08;;;;;;;8.48;3.03;;;;;;;;;;5091847;28;20407;-73
2021/05/25 11:36:35;;;;;;;4.53;2.63;;;;;;;;;;5091623;28;20026;-75
2021/05/25 11:39:03;;;;;;;5.40;2.75;;;;;;;;;;5090058;28;20023;-75
2021/05/25 11:41:30;;;;;;;8.75;2.80;;;;;;;;;;5087540;28;20378;-75
2021/05/25 11:44:07;;;;;;;4.18;2.28;;;;;;;;;;5107866;28;20068;-76
2021/05/25 11:46:44;;;;;;;5.35;2.67;;;;;;;;;;5106947;28;20141;-76
2021/05/25 11:49:10;;;;;;;5.22;2.80;;;;;;;;;;5095482;28;21045;-75
2021/05/25 11:51:37;;;;;;;5.38;2.83;;;;;;;;;;5100617;28;20028;-74
2021/05/25 11:54:07;;;;;;;7.00;2.53;;;;;;;;;;5115230;28;20015;-76
2021/05/25 11:56:33;;;;;;;4.93;2.85;;;;;;;;;;5113852;28;20034;-73
2021/05/25 11:59:00;;;;;;;3.83;2.58;;;;;;;;;;5112937;28;20568;-74
2021/05/25 12:01:47;;;;;;;3.13;2.13;;;;;;;;;;5108775;28;20032;-74
2021/05/25 12:04:14;;;;;;;3.70;2.20;;;;;;;;;;5091363;28;20162;-74
2021/05/25 12:06:51;;;;;;;5.18;2.33;;;;;;;;;;5115075;28;20028;-73
2021/05/25 12:09:17;;;;;;;4.25;1.75;;;;;;;;;;5079878;28;20034;-76
2021/05/25 12:11:44;;;;;;;5.05;1.80;;;;;;;;;;5113411;28;20019;-74
2021/05/25 12:14:12;;;;;;;7.00;2.08;;;;;;;;;;5116075;28;20096;-76
2021/05/25 12:16:38;;;;;;;4.50;1.70;;;;;;;;;;5069088;28;20032;-72
2021/05/25 12:19:04;;;;;;;5.45;1.90;;;;;;;;;;5103862;28;20024;-75
2021/05/25 12:21:31;;;;;;;4.18;1.38;;;;;;;;;;5095315;28;20128;-73
2021/05/25 12:23:58;;;;;;;4.13;1.63;;;;;;;;;;5115725;28;20058;-74
2021/05/25 12:26:24;;;;;;;2.90;1.55;;;;;;;;;;5090349;28;20047;-77
2021/05/25 12:28:53;;;;;;;3.63;1.60;;;;;;;;;;5112782;28;20581;-74
2021/05/25 12:31:19;;;;;;;2.58;1.27;;;;;;;;;;5113163;28;20369;-74
2021/05/25 12:33:47;;;;;;;3.70;1.48;;;;;;;;;;5089171;28;20031;-74
2021/05/25 12:36:14;;;;;;;3.88;1.40;;;;;;;;;;5093871;28;20020;-74
2021/05/25 12:38:53;;;;;;;3.90;1.48;;;;;;;;;;5114938;28;20494;-76
2021/05/25 12:41:19;;;;;;;5.60;1.40;;;;;;;;;;5114322;28;20027;-78
2021/05/25 12:43:46;;;;;;;8.27;1.92;;;;;;;;;;5091801;28;20064;-75
2021/05/25 12:46:12;;;;;;;6.38;1.33;;;;;;;;;;5110426;28;20020;-76
2021/05/25 12:48:40;;;;;;;5.95;1.50;;;;;;;;;;5085851;28;20024;-72
2021/05/25 12:51:07;;;;;;;6.75;1.65;;;;;;;;;;5105829;28;20016;-76
2021/05/25 12:53:53;;;;;;;5.00;1.77;;;;;;;;;;5107778;28;20048;-75
2021/05/25 12:56:20;;;;;;;7.38;2.50;;;;;;;;;;5101653;28;20119;-72
2021/05/25 12:58:50;;;;;;;3.42;1.73;;;;;;;;;;5110994;28;20028;-73
2021/05/25 13:01:30;;;;;;;7.93;1.90;;;;;;;;;;5110327;28;20020;-71
2021/05/25 13:03:57;;;;;;;3.67;1.40;;;;;;;;;;5111879;28;20145;-74
2021/05/25 13:06:30;;;;;;;3.78;1.20;;;;;;;;;;5111438;28;20019;-73
2021/05/25 13:09:29;;;;;;;8.27;1.40;;;;;;;;;;5108588;28;20043;-73
2021/05/25 13:12:16;;;;;;;4.85;1.33;;;;;;;;;;5110505;28;20019;-74
2021/05/25 13:14:43;;;;;;;5.35;1.38;;;;;;;;;;5114370;28;20484;-73
2021/05/25 13:17:13;;;;;;;5.63;1.30;;;;;;;;;;5114641;28;20026;-74
2021/05/25 13:19:44;;;;;;;2.25;1.25;;;;;;;;;;5096197;28;20400;-74
2021/05/25 13:22:11;;;;;;;4.15;1.40;;;;;;;;;;5112124;28;20174;-75
2021/05/25 13:24:52;;;;;;;3.08;1.15;;;;;;;;;;5090926;28;20019;-75
2021/05/25 13:27:22;;;;;;;6.68;1.83;;;;;;;;;;5110921;28;20020;-74
2021/05/25 13:30:04;;;;;;;4.28;1.70;;;;;;;;;;5105546;28;20020;-73
2021/05/25 13:32:30;;;;;;;9.32;1.60;;;;;;;;;;5101532;28;20023;-73
2021/05/25 13:34:59;;;;;;;3.60;1.20;;;;;;;;;;5108197;28;20541;-71
2021/05/25 13:37:25;;;;;;;4.63;1.50;;;;;;;;;;5106189;28;20042;-71
2021/05/25 13:39:55;;;;;;;4.50;1.80;;;;;;;;;;5111336;28;20443;-72
2021/05/25 13:42:22;;;;;;;4.00;1.50;;;;;;;;;;5108777;28;20461;-73
2021/05/25 13:44:48;;;;;;;4.25;1.13;;;;;;;;;;5107116;28;20525;-71
2021/05/25 13:47:15;;;;;;;5.32;1.20;;;;;;;;;;5110751;28;20028;-76
2021/05/25 13:49:44;;;;;;;3.75;0.95;;;;;;;;;;5112857;28;20046;-75
2021/05/25 13:52:10;;;;;;;2.78;0.95;;;;;;;;;;5111038;28;20103;-76
2021/05/25 13:54:36;;;;;;;4.18;1.10;;;;;;;;;;5111298;28;20081;-75
2021/05/25 13:57:04;;;;;;;2.90;0.88;;;;;;;;;;5108360;28;20142;-78
2021/05/25 13:59:52;;;;;;;2.65;0.63;;;;;;;;;;5102306;28;20023;-74
2021/05/25 14:02:19;;;;;;;2.97;0.68;;;;;;;;;;5107954;28;20023;-74
2021/05/25 14:04:45;;;;;;;2.13;0.75;;;;;;;;;;5108659;28;20028;-76
2021/05/25 14:07:14;;;;;;;2.80;0.63;;;;;;;;;;5086387;28;20035;-75
2021/05/25 14:09:42;;;;;;;1.77;0.40;;;;;;;;;;5104918;28;20050;-75
2021/05/25 14:12:09;;;;;;;1.40;0.57;;;;;;;;;;5100737;28;20103;-75
2021/05/25 14:14:35;;;;;;;1.23;0.40;;;;;;;;;;5105756;28;20063;-74
2021/05/25 14:17:02;;;;;;;2.45;0.63;;;;;;;;;;5111956;28;20051;-77
2021/05/25 14:19:29;;;;;;;2.65;0.80;;;;;;;;;;5112002;28;20065;-76
2021/05/25 14:21:54;;;;;;;1.80;0.52;;;;;;;;;;5102919;28;20114;-76
2021/05/25 14:24:22;;;;;;;2.15;0.70;;;;;;;;;;5104404;28;20484;-78
2021/05/25 14:26:48;;;;;;;1.90;0.60;;;;;;;;;;5088077;28;20496;-77
2021/05/25 14:29:15;;;;;;;1.95;0.77;;;;;;;;;;5107299;28;20027;-75
2021/05/25 14:31:44;;;;;;;2.17;0.70;;;;;;;;;;5109717;28;20047;-77
2021/05/25 14:34:10;;;;;;;2.43;1.07;;;;;;;;;;5086909;28;20584;-77
2021/05/25 14:36:36;;;;;;;3.53;0.90;;;;;;;;;;5111379;28;20476;-77
2021/05/25 14:39:04;;;;;;;2.55;1.02;;;;;;;;;;5111227;28;20377;-72
2021/05/25 14:41:30;;;;;;;2.63;0.98;;;;;;;;;;5105890;28;20560;-74
2021/05/25 14:43:56;;;;;;;2.65;1.02;;;;;;;;;;5105783;28;20094;-75
2021/05/25 14:46:24;;;;;;;3.92;1.30;;;;;;;;;;5111480;28;20030;-72
2021/05/25 14:48:51;;;;;;;5.97;1.75;;;;;;;;;;5091685;28;20016;-73
2021/05/25 14:51:17;;;;;;;4.10;1.70;;;;;;;;;;5108301;28;20377;-73
2021/05/25 14:53:50;;;;;;;3.15;1.48;;;;;;;;;;5108446;28;20011;-75